Time;durP1;ratioP1;P1;durP2;ratioP2;P2;SDS_P1;SDS_P2;PMS_P1;PMS_P2;Temp;Humidity;BMP_temperature;BMP_pressure;BME280_temperature;BME280_humidity;BME280_pressure;Samples;Min_cycle;Max_cycle;Signal;HPM_P1;HPM_P2
2021/04/25 00:01:56;;;;;;;;;;;19.90;51.30;;;;;;5065932;28;19989;-59
2021/04/25 00:04:22;;;;;;;;;;;19.90;51.30;;;;;;5056453;28;19931;-59
2021/04/25 00:06:49;;;;;;;;;;;19.90;51.30;;;;;;5062872;28;19929;-59
2021/04/25 00:09:16;;;;;;;;;;;19.80;51.30;;;;;;5060938;28;19928;-59
2021/04/25 00:11:42;;;;;;;;;;;19.80;51.20;;;;;;5060540;28;19932;-58
2021/04/25 00:14:08;;;;;;;;;;;19.80;51.30;;;;;;5063715;28;19925;-59
2021/04/25 00:16:35;;;;;;;;;;;19.80;51.30;;;;;;5062108;28;20744;-57
2021/04/25 00:19:04;;;;;;;;;;;19.80;51.30;;;;;;5067024;28;19924;-57
2021/04/25 00:21:30;;;;;;;;;;;19.80;51.30;;;;;;5064055;28;20331;-57
2021/04/25 00:23:56;;;;;;;;;;;19.80;51.30;;;;;;5061549;28;19924;-59
2021/04/25 00:26:23;;;;;;;;;;;19.80;51.30;;;;;;5046759;28;19929;-59
2021/04/25 00:28:49;;;;;;;;;;;19.70;51.20;;;;;;5058740;28;20341;-59
2021/04/25 00:31:15;;;;;;;;;;;19.70;51.20;;;;;;5062795;28;19925;-57
2021/04/25 00:33:41;;;;;;;;;;;19.70;51.10;;;;;;5041034;28;20327;-57
2021/04/25 00:36:07;;;;;;;;;;;19.70;51.10;;;;;;5057414;28;19928;-58
2021/04/25 00:38:33;;;;;;;;;;;19.70;51.10;;;;;;5067000;28;19932;-58
2021/04/25 00:41:00;;;;;;;;;;;19.60;51.10;;;;;;5059620;28;20396;-57
2021/04/25 00:43:26;;;;;;;;;;;19.70;51.10;;;;;;5044743;28;19925;-57
2021/04/25 00:45:52;;;;;;;;;;;19.60;51.10;;;;;;5055988;28;20294;-59
2021/04/25 00:48:18;;;;;;;;;;;19.60;51.10;;;;;;5066679;28;20011;-58
2021/04/25 00:50:45;;;;;;;;;;;19.60;51.10;;;;;;5056981;28;19932;-59
2021/04/25 00:53:11;;;;;;;;;;;19.60;51.10;;;;;;5064699;28;19931;-59
2021/04/25 00:55:37;;;;;;;;;;;19.60;51.10;;;;;;5058675;28;20497;-59
2021/04/25 00:58:03;;;;;;;;;;;19.60;51.10;;;;;;5065043;28;19931;-59
2021/04/25 01:00:30;;;;;;;;;;;19.60;51.00;;;;;;5054431;28;19939;-57
2021/04/25 01:02:59;;;;;;;;;;;19.60;51.00;;;;;;5062839;28;19932;-58
2021/04/25 01:05:25;;;;;;;;;;;19.50;51.00;;;;;;5058851;28;19932;-58
2021/04/25 01:07:52;;;;;;;;;;;19.50;50.90;;;;;;5063778;28;19924;-58
2021/04/25 01:10:18;;;;;;;;;;;19.50;50.90;;;;;;5052940;28;19933;-58
2021/04/25 01:12:45;;;;;;;;;;;19.50;50.90;;;;;;5063118;28;20362;-58
2021/04/25 01:15:12;;;;;;;;;;;19.50;50.90;;;;;;5066109;28;19989;-59
2021/04/25 01:17:40;;;;;;;;;;;19.50;50.90;;;;;;5058562;28;19929;-57
2021/04/25 01:20:07;;;;;;;;;;;19.50;50.90;;;;;;5038549;28;21583;-58
2021/04/25 01:22:39;;;;;;;;;;;19.50;50.90;;;;;;5064049;28;19956;-59
2021/04/25 01:25:06;;;;;;;;;;;19.40;50.80;;;;;;5064977;28;19932;-57
2021/04/25 01:27:32;;;;;;;;;;;19.40;50.80;;;;;;5064506;28;19924;-57
2021/04/25 01:29:59;;;;;;;;;;;19.40;50.80;;;;;;5063145;28;19954;-58
2021/04/25 01:32:30;;;;;;;;;;;19.40;50.80;;;;;;5064288;28;20328;-57
2021/04/25 01:34:56;;;;;;;;;;;19.40;50.80;;;;;;5065199;28;19925;-59
2021/04/25 01:37:22;;;;;;;;;;;19.40;50.80;;;;;;5056825;28;19928;-59
2021/04/25 01:39:51;;;;;;;;;;;19.40;50.80;;;;;;5043810;28;19931;-58
2021/04/25 01:42:23;;;;;;;;;;;19.30;50.80;;;;;;5066229;28;19925;-58
2021/04/25 01:44:49;;;;;;;;;;;19.40;50.80;;;;;;5065894;28;19932;-57
2021/04/25 01:47:15;;;;;;;;;;;19.30;50.70;;;;;;5053417;28;19932;-57
2021/04/25 01:49:41;;;;;;;;;;;19.30;50.70;;;;;;5063328;28;19928;-59
2021/04/25 01:52:07;;;;;;;;;;;19.30;50.70;;;;;;5052040;28;19940;-58
2021/04/25 01:54:33;;;;;;;;;;;19.30;50.70;;;;;;5064244;28;19932;-59
2021/04/25 01:56:59;;;;;;;;;;;19.30;50.70;;;;;;5056336;28;19936;-57
2021/04/25 01:59:26;;;;;;;;;;;19.30;50.70;;;;;;5064241;28;19931;-57
2021/04/25 02:01:57;;;;;;;;;;;19.30;50.70;;;;;;5065575;28;19932;-59
2021/04/25 02:04:24;;;;;;;;;;;19.30;50.70;;;;;;5065838;28;20555;-59
2021/04/25 02:06:50;;;;;;;;;;;19.20;50.60;;;;;;5064553;28;20457;-58
2021/04/25 02:09:16;;;;;;;;;;;19.30;50.70;;;;;;5068078;28;20344;-58
2021/04/25 02:11:43;;;;;;;;;;;19.20;50.60;;;;;;5066811;28;19944;-59
2021/04/25 02:14:09;;;;;;;;;;;19.20;50.60;;;;;;5066906;28;19924;-58
2021/04/25 02:16:35;;;;;;;;;;;19.20;50.60;;;;;;5061901;28;20481;-58
2021/04/25 02:19:01;;;;;;;;;;;19.20;50.60;;;;;;5065646;28;19928;-59
2021/04/25 02:21:28;;;;;;;;;;;19.20;50.60;;;;;;5053652;28;19946;-59
2021/04/25 02:23:55;;;;;;;;;;;19.20;50.60;;;;;;5069163;28;20312;-59
2021/04/25 02:26:22;;;;;;;;;;;19.20;50.60;;;;;;5068613;28;19940;-58
2021/04/25 02:28:48;;;;;;;;;;;19.20;50.60;;;;;;5058126;28;19925;-58
2021/04/25 02:31:14;;;;;;;;;;;19.20;50.60;;;;;;5062254;28;19929;-60
2021/04/25 02:33:41;;;;;;;;;;;19.20;50.60;;;;;;5065431;28;19930;-58
2021/04/25 02:36:07;;;;;;;;;;;19.10;50.50;;;;;;5067406;28;19934;-58
2021/04/25 02:38:33;;;;;;;;;;;19.10;50.50;;;;;;5064011;28;19925;-58
2021/04/25 02:41:00;;;;;;;;;;;19.10;50.50;;;;;;5066028;28;20017;-58
2021/04/25 02:43:31;;;;;;;;;;;19.10;51.10;;;;;;5062532;28;19924;-59
2021/04/25 02:45:58;;;;;;;;;;;19.10;50.50;;;;;;5067292;28;19932;-58
2021/04/25 02:48:24;;;;;;;;;;;19.10;50.50;;;;;;5062820;28;20312;-58
2021/04/25 02:50:50;;;;;;;;;;;19.10;50.50;;;;;;5068900;28;20262;-59
2021/04/25 02:53:16;;;;;;;;;;;19.10;50.60;;;;;;5052016;28;20281;-58
2021/04/25 02:55:43;;;;;;;;;;;19.10;50.50;;;;;;5067976;28;19928;-58
2021/04/25 02:58:10;;;;;;;;;;;19.00;50.40;;;;;;5060167;28;19934;-58
2021/04/25 03:00:37;;;;;;;;;;;19.00;50.40;;;;;;5064720;28;19936;-57
2021/04/25 03:03:03;;;;;;;;;;;19.00;50.40;;;;;;5063741;28;19932;-58
2021/04/25 03:05:30;;;;;;;;;;;19.00;50.30;;;;;;5048119;28;19964;-57
2021/04/25 03:07:56;;;;;;;;;;;19.00;50.40;;;;;;5062152;28;19978;-57
2021/04/25 03:10:23;;;;;;;;;;;19.00;50.40;;;;;;5066937;28;19925;-58
2021/04/25 03:12:49;;;;;;;;;;;19.00;50.40;;;;;;5066946;28;19925;-57
2021/04/25 03:15:17;;;;;;;;;;;19.00;50.40;;;;;;5060987;28;19925;-56
2021/04/25 03:17:43;;;;;;;;;;;19.00;50.40;;;;;;5068182;28;20323;-59
2021/04/25 03:20:11;;;;;;;;;;;19.00;50.40;;;;;;5058638;28;20532;-59
2021/04/25 03:22:38;;;;;;;;;;;18.90;50.30;;;;;;5059868;28;19925;-56
2021/04/25 03:25:05;;;;;;;;;;;18.90;50.30;;;;;;5055507;28;20343;-56
2021/04/25 03:27:31;;;;;;;;;;;19.00;50.40;;;;;;5061661;28;19932;-58
2021/04/25 03:29:57;;;;;;;;;;;18.90;50.30;;;;;;5065913;28;19925;-58
2021/04/25 03:32:23;;;;;;;;;;;18.90;50.30;;;;;;5066851;28;19932;-59
2021/04/25 03:34:49;;;;;;;;;;;18.90;50.30;;;;;;5061045;28;20359;-56
2021/04/25 03:37:16;;;;;;;;;;;18.90;50.30;;;;;;5067239;28;19951;-57
2021/04/25 03:39:42;;;;;;;;;;;18.90;50.30;;;;;;5063885;28;19928;-57
2021/04/25 03:42:08;;;;;;;;;;;18.90;50.30;;;;;;5065462;28;19973;-59
2021/04/25 03:44:34;;;;;;;;;;;18.90;50.20;;;;;;5066490;28;20369;-57
2021/04/25 03:47:00;;;;;;;;;;;18.90;50.20;;;;;;5064281;28;19924;-58
2021/04/25 03:49:27;;;;;;;;;;;18.90;50.20;;;;;;5058299;28;20017;-58
2021/04/25 03:51:58;;;;;;;;;;;18.90;50.20;;;;;;5065354;28;19931;-57
2021/04/25 03:54:24;;;;;;;;;;;18.90;50.20;;;;;;5050390;28;19928;-57
2021/04/25 03:56:52;;;;;;;;;;;18.90;50.20;;;;;;5064110;28;20561;-57
2021/04/25 03:59:18;;;;;;;;;;;18.90;50.20;;;;;;5057892;28;19928;-58
2021/04/25 04:01:45;;;;;;;;;;;18.80;50.10;;;;;;5062601;28;19931;-57
2021/04/25 04:04:11;;;;;;;;;;;18.80;50.10;;;;;;5053126;28;19968;-58
2021/04/25 04:06:37;;;;;;;;;;;18.80;50.20;;;;;;5067572;28;19924;-57
2021/04/25 04:09:04;;;;;;;;;;;18.80;50.20;;;;;;5068283;28;20305;-56
2021/04/25 04:11:30;;;;;;;;;;;18.80;50.20;;;;;;5066911;28;19936;-59
2021/04/25 04:13:56;;;;;;;;;;;18.80;50.20;;;;;;5064943;28;19924;-59
2021/04/25 04:16:23;;;;;;;;;;;18.80;50.20;;;;;;5065989;28;19998;-59
2021/04/25 04:18:49;;;;;;;;;;;18.80;50.20;;;;;;5063427;28;19925;-59
2021/04/25 04:21:16;;;;;;;;;;;18.80;50.20;;;;;;5064438;28;19977;-59
2021/04/25 04:23:42;;;;;;;;;;;18.80;50.20;;;;;;5057355;28;19932;-60
2021/04/25 04:26:08;;;;;;;;;;;18.80;50.20;;;;;;5057866;28;19925;-60
2021/04/25 04:28:34;;;;;;;;;;;18.80;50.10;;;;;;5065890;28;20852;-59
2021/04/25 04:31:01;;;;;;;;;;;18.70;50.10;;;;;;5061911;28;19928;-59
2021/04/25 04:33:27;;;;;;;;;;;18.70;50.10;;;;;;5059818;28;20281;-59
2021/04/25 04:35:53;;;;;;;;;;;18.80;50.10;;;;;;5045068;28;20409;-59
2021/04/25 04:38:19;;;;;;;;;;;18.80;50.10;;;;;;5060329;28;20444;-59
2021/04/25 04:40:46;;;;;;;;;;;18.70;50.10;;;;;;5050857;28;20517;-59
2021/04/25 04:43:12;;;;;;;;;;;18.70;50.10;;;;;;5061424;28;19929;-59
2021/04/25 04:45:38;;;;;;;;;;;18.70;50.10;;;;;;5058025;28;19928;-59
2021/04/25 04:48:04;;;;;;;;;;;18.70;50.00;;;;;;5064316;28;20575;-59
2021/04/25 04:50:30;;;;;;;;;;;18.70;50.00;;;;;;5063946;28;19925;-60
2021/04/25 04:53:07;;;;;;;;;;;18.70;50.10;;;;;;5063482;28;19924;-59
2021/04/25 04:55:33;;;;;;;;;;;18.70;50.00;;;;;;5050511;28;19932;-59
2021/04/25 04:57:59;;;;;;;;;;;18.70;50.00;;;;;;5063870;28;19978;-59
2021/04/25 05:00:25;;;;;;;;;;;18.70;50.00;;;;;;5060068;28;19924;-59
2021/04/25 05:02:52;;;;;;;;;;;18.70;50.00;;;;;;5061691;28;20392;-60
2021/04/25 05:05:18;;;;;;;;;;;18.70;50.00;;;;;;5058402;28;20316;-60
2021/04/25 05:07:44;;;;;;;;;;;18.70;50.00;;;;;;5067063;28;19931;-60
2021/04/25 05:10:11;;;;;;;;;;;18.70;50.00;;;;;;5067096;28;19940;-61
2021/04/25 05:12:37;;;;;;;;;;;18.60;49.90;;;;;;5064185;28;19928;-59
2021/04/25 05:15:04;;;;;;;;;;;18.60;49.90;;;;;;5066528;28;19932;-59
2021/04/25 05:17:30;;;;;;;;;;;18.60;49.90;;;;;;5064680;28;19940;-59
2021/04/25 05:19:56;;;;;;;;;;;18.60;49.90;;;;;;5057950;28;19925;-59
2021/04/25 05:22:23;;;;;;;;;;;18.60;49.90;;;;;;5056761;28;19932;-59
2021/04/25 05:24:49;;;;;;;;;;;18.60;49.90;;;;;;5066900;28;19990;-59
2021/04/25 05:27:15;;;;;;;;;;;18.60;49.90;;;;;;5062607;28;20564;-59
2021/04/25 05:29:41;;;;;;;;;;;18.60;49.90;;;;;;5064684;28;19928;-59
2021/04/25 05:32:08;;;;;;;;;;;18.60;49.80;;;;;;5064841;28;19928;-59
2021/04/25 05:34:35;;;;;;;;;;;18.60;49.80;;;;;;5066364;28;19924;-59
2021/04/25 05:37:01;;;;;;;;;;;18.60;49.80;;;;;;5056476;28;20400;-60
2021/04/25 05:39:28;;;;;;;;;;;18.60;49.80;;;;;;5065905;28;20381;-59
2021/04/25 05:41:54;;;;;;;;;;;18.60;49.80;;;;;;5065680;28;20273;-59
2021/04/25 05:44:20;;;;;;;;;;;18.60;49.80;;;;;;5064909;28;19932;-59
2021/04/25 05:46:46;;;;;;;;;;;18.60;49.80;;;;;;5066360;28;19932;-60
2021/04/25 05:49:13;;;;;;;;;;;18.60;49.70;;;;;;5044344;28;19925;-61
2021/04/25 05:51:39;;;;;;;;;;;18.60;49.60;;;;;;5056385;28;20482;-59
2021/04/25 05:54:05;;;;;;;;;;;18.60;49.70;;;;;;5061994;28;20803;-60
2021/04/25 05:56:31;;;;;;;;;;;18.60;49.70;;;;;;5038880;28;20639;-59
2021/04/25 05:58:57;;;;;;;;;;;18.60;49.60;;;;;;5045972;28;19924;-59
2021/04/25 06:01:24;;;;;;;;;;;18.60;49.60;;;;;;5038704;28;19928;-59
2021/04/25 06:03:50;;;;;;;;;;;18.60;49.60;;;;;;5044050;28;20017;-59
2021/04/25 06:06:17;;;;;;;;;;;18.60;49.60;;;;;;5030776;28;19925;-59
2021/04/25 06:08:43;;;;;;;;;;;18.60;49.60;;;;;;5042592;28;19933;-60
2021/04/25 06:11:10;;;;;;;;;;;18.60;49.60;;;;;;5037839;28;20282;-60
2021/04/25 06:13:36;;;;;;;;;;;18.60;49.60;;;;;;5045863;28;20277;-59
2021/04/25 06:16:02;;;;;;;;;;;18.60;49.60;;;;;;5037729;28;19978;-60
2021/04/25 06:18:28;;;;;;;;;;;18.60;49.60;;;;;;5051729;28;19924;-60
2021/04/25 06:20:54;;;;;;;;;;;18.60;49.50;;;;;;5048083;28;20359;-59
2021/04/25 06:23:21;;;;;;;;;;;18.60;49.50;;;;;;5044487;28;19929;-59
2021/04/25 06:25:47;;;;;;;;;;;18.60;49.60;;;;;;5054666;28;19940;-61
2021/04/25 06:28:13;;;;;;;;;;;18.60;49.50;;;;;;5048115;28;19925;-59
2021/04/25 06:30:39;;;;;;;;;;;18.60;49.50;;;;;;5052518;28;19928;-59
2021/04/25 06:33:06;;;;;;;;;;;18.60;49.40;;;;;;5042751;28;21362;-58
2021/04/25 06:35:32;;;;;;;;;;;18.60;49.50;;;;;;5028914;28;20262;-59
2021/04/25 06:37:58;;;;;;;;;;;18.60;49.50;;;;;;5044239;28;19925;-59
2021/04/25 06:40:24;;;;;;;;;;;18.60;49.50;;;;;;5039863;28;19929;-59
2021/04/25 06:42:50;;;;;;;;;;;18.60;49.50;;;;;;5052862;28;19932;-59
2021/04/25 06:45:20;;;;;;;;;;;18.60;49.50;;;;;;5045267;28;19925;-57
2021/04/25 06:47:47;;;;;;;;;;;18.60;49.50;;;;;;5036465;28;19933;-58
2021/04/25 06:50:13;;;;;;;;;;;18.60;49.40;;;;;;5049138;28;19944;-57
2021/04/25 06:52:41;;;;;;;;;;;18.60;49.50;;;;;;5036102;28;19971;-58
2021/04/25 06:55:07;;;;;;;;;;;18.60;49.40;;;;;;5048398;28;20466;-57
2021/04/25 06:57:34;;;;;;;;;;;18.60;49.40;;;;;;5035299;28;19983;-57
2021/04/25 07:00:00;;;;;;;;;;;18.60;49.40;;;;;;5048492;28;20751;-58
2021/04/25 07:02:27;;;;;;;;;;;18.60;49.40;;;;;;5037735;28;20393;-58
2021/04/25 07:04:53;;;;;;;;;;;18.60;49.40;;;;;;5045775;28;19925;-57
2021/04/25 07:07:20;;;;;;;;;;;18.60;49.40;;;;;;5041359;28;20514;-58
2021/04/25 07:09:46;;;;;;;;;;;18.60;50.20;;;;;;5047664;28;19925;-60
2021/04/25 07:12:37;;;;;;;;;;;18.70;49.70;;;;;;5033765;28;19924;-57
2021/04/25 07:15:05;;;;;;;;;;;18.80;49.90;;;;;;5047087;28;19940;-57
2021/04/25 07:17:31;;;;;;;;;;;18.90;49.90;;;;;;5050006;28;19925;-58
2021/04/25 07:19:57;;;;;;;;;;;18.90;49.90;;;;;;5032699;28;20313;-59
2021/04/25 07:22:23;;;;;;;;;;;19.00;50.20;;;;;;5048340;28;19932;-63
2021/04/25 07:24:50;;;;;;;;;;;19.00;49.50;;;;;;5050458;28;20340;-56
2021/04/25 07:27:19;;;;;;;;;;;19.10;49.60;;;;;;5051171;28;19924;-59
2021/04/25 07:29:46;;;;;;;;;;;19.10;49.50;;;;;;5049981;28;20024;-61
2021/04/25 07:32:13;;;;;;;;;;;19.20;49.40;;;;;;5047973;28;19924;-59
2021/04/25 07:34:39;;;;;;;;;;;19.20;49.40;;;;;;5044260;28;19924;-60
2021/04/25 07:37:05;;;;;;;;;;;19.30;49.30;;;;;;5050721;28;20298;-59
2021/04/25 07:39:35;;;;;;;;;;;19.30;49.20;;;;;;5043673;28;20235;-59
2021/04/25 07:42:12;;;;;;;;;;;19.30;48.90;;;;;;5046346;28;20412;-59
2021/04/25 07:44:41;;;;;;;;;;;19.40;49.00;;;;;;5045816;28;20471;-58
2021/04/25 07:47:07;;;;;;;;;;;19.40;48.90;;;;;;5038177;28;21405;-57
2021/04/25 07:49:34;;;;;;;;;;;19.40;48.70;;;;;;5048392;28;19929;-55
2021/04/25 07:52:10;;;;;;;;;;;19.40;48.20;;;;;;5048809;28;19932;-55
2021/04/25 07:54:36;;;;;;;;;;;19.40;47.70;;;;;;5053553;28;21399;-55
2021/04/25 07:57:02;;;;;;;;;;;19.40;47.80;;;;;;5062774;28;19924;-56
2021/04/25 07:59:29;;;;;;;;;;;19.40;47.90;;;;;;5048125;28;19955;-55
2021/04/25 08:02:00;;;;;;;;;;;19.40;47.80;;;;;;5069628;28;19929;-56
2021/04/25 08:04:26;;;;;;;;;;;19.30;47.70;;;;;;5069358;28;19932;-55
2021/04/25 08:06:52;;;;;;;;;;;19.40;47.70;;;;;;5066877;28;19929;-56
2021/04/25 08:09:19;;;;;;;;;;;19.40;47.60;;;;;;5069002;28;19924;-55
2021/04/25 08:11:55;;;;;;;;;;;19.40;47.60;;;;;;5068911;28;19928;-54
2021/04/25 08:14:21;;;;;;;;;;;19.40;47.20;;;;;;5064539;28;19943;-56
2021/04/25 08:16:48;;;;;;;;;;;19.50;47.70;;;;;;5066971;28;20339;-56
2021/04/25 08:19:14;;;;;;;;;;;19.50;47.40;;;;;;5062861;28;19931;-55
2021/04/25 08:21:40;;;;;;;;;;;19.60;47.40;;;;;;5066310;28;19929;-55
2021/04/25 08:24:07;;;;;;;;;;;19.60;47.30;;;;;;5064847;28;20550;-57
2021/04/25 08:26:34;;;;;;;;;;;19.60;47.00;;;;;;5061301;28;20330;-55
2021/04/25 08:29:00;;;;;;;;;;;19.70;47.00;;;;;;5064634;28;19929;-55
2021/04/25 08:31:27;;;;;;;;;;;19.70;47.00;;;;;;5066226;28;19939;-55
2021/04/25 08:33:53;;;;;;;;;;;19.70;47.00;;;;;;5064813;28;19932;-55
2021/04/25 08:36:20;;;;;;;;;;;19.80;47.20;;;;;;5063327;28;19929;-54
2021/04/25 08:38:47;;;;;;;;;;;19.80;46.70;;;;;;5064460;28;21264;-55
2021/04/25 08:41:15;;;;;;;;;;;19.80;46.80;;;;;;5063300;28;19925;-61
2021/04/25 08:43:42;;;;;;;;;;;19.80;47.30;;;;;;5063263;28;19933;-59
2021/04/25 08:46:09;;;;;;;;;;;19.90;46.90;;;;;;5062488;28;19936;-59
2021/04/25 08:48:36;;;;;;;;;;;19.90;46.80;;;;;;5064012;28;20705;-59
2021/04/25 08:51:02;;;;;;;;;;;19.90;46.70;;;;;;5063666;28;19955;-60
2021/04/25 08:53:29;;;;;;;;;;;19.90;46.90;;;;;;5063267;28;20250;-58
2021/04/25 08:55:55;;;;;;;;;;;20.00;47.00;;;;;;5061976;28;20318;-60
2021/04/25 08:58:21;;;;;;;;;;;20.00;46.40;;;;;;5062643;28;19925;-60
2021/04/25 09:00:48;;;;;;;;;;;20.00;46.60;;;;;;5062944;28;19942;-55
2021/04/25 09:03:15;;;;;;;;;;;20.00;46.40;;;;;;5062907;28;20531;-56
2021/04/25 09:05:43;;;;;;;;;;;20.10;46.90;;;;;;5063155;28;19940;-54
2021/04/25 09:08:10;;;;;;;;;;;20.00;46.70;;;;;;5062338;28;19928;-55
2021/04/25 09:10:37;;;;;;;;;;;20.00;46.70;;;;;;5064314;28;20694;-55
2021/04/25 09:13:26;;;;;;;;;;;20.10;46.80;;;;;;5063347;28;19932;-54
2021/04/25 09:15:53;;;;;;;;;;;20.00;46.80;;;;;;5052303;28;20254;-55
2021/04/25 09:18:32;;;;;;;;;;;20.10;46.90;;;;;;5064454;28;20415;-53
2021/04/25 09:21:04;;;;;;;;;;;20.00;47.10;;;;;;5051783;28;19924;-53
2021/04/25 09:23:31;;;;;;;;;;;20.00;47.60;;;;;;5064766;28;19974;-61
2021/04/25 09:25:59;;;;;;;;;;;20.00;47.60;;;;;;5062342;28;19939;-62
2021/04/25 09:28:26;;;;;;;;;;;20.10;49.30;;;;;;5062912;28;19931;-64
2021/04/25 09:30:54;;;;;;;;;;;20.20;49.90;;;;;;5062404;28;19936;-61
2021/04/25 09:33:20;;;;;;;;;;;20.30;50.00;;;;;;5064369;28;20009;-62
2021/04/25 09:35:46;;;;;;;;;;;20.40;50.10;;;;;;5062977;28;19928;-64
2021/04/25 09:38:13;;;;;;;;;;;20.50;49.70;;;;;;5065042;28;19986;-62
2021/04/25 09:40:49;;;;;;;;;;;20.50;49.60;;;;;;5064314;28;19928;-64
2021/04/25 09:43:16;;;;;;;;;;;20.60;49.30;;;;;;5060207;28;19924;-60
2021/04/25 09:45:44;;;;;;;;;;;20.70;49.50;;;;;;5063886;28;19933;-63
2021/04/25 09:48:24;;;;;;;;;;;20.70;49.40;;;;;;5065344;28;19978;-65
2021/04/25 09:51:09;;;;;;;;;;;20.80;49.20;;;;;;5061239;28;19943;-64
2021/04/25 09:53:54;;;;;;;;;;;20.80;49.40;;;;;;5034528;28;20517;-54
2021/04/25 09:56:31;;;;;;;;;;;20.90;48.40;;;;;;5035327;28;19959;-53
2021/04/25 09:59:06;;;;;;;;;;;20.70;47.00;;;;;;5040027;28;19944;-53
2021/04/25 10:01:49;;;;;;;;;;;20.70;47.10;;;;;;5037053;28;19960;-55
2021/04/25 10:04:35;;;;;;;;;;;20.60;47.20;;;;;;5043680;28;19948;-53
2021/04/25 10:07:17;;;;;;;;;;;20.50;47.10;;;;;;5046362;28;20067;-54
2021/04/25 10:10:16;;;;;;;;;;;20.50;46.90;;;;;;5031131;28;20774;-55
2021/04/25 10:12:42;;;;;;;;;;;20.40;46.80;;;;;;5026019;28;20389;-53
2021/04/25 10:15:09;;;;;;;;;;;20.40;46.70;;;;;;5040584;28;19928;-54
2021/04/25 10:17:43;;;;;;;;;;;20.40;46.70;;;;;;5043777;28;21300;-53
2021/04/25 10:20:10;;;;;;;;;;;20.40;46.90;;;;;;5045450;28;21838;-53
2021/04/25 10:22:46;;;;;;;;;;;20.40;47.00;;;;;;5044432;28;21346;-54
2021/04/25 10:25:13;;;;;;;;;;;20.40;46.90;;;;;;5049701;28;20641;-57
2021/04/25 10:27:41;;;;;;;;;;;20.40;46.80;;;;;;5048886;28;20618;-57
2021/04/25 10:30:09;;;;;;;;;;;20.40;46.60;;;;;;5037480;28;22082;-56
2021/04/25 10:32:35;;;;;;;;;;;20.30;46.50;;;;;;5045014;28;19939;-57
2021/04/25 10:35:11;;;;;;;;;;;20.40;46.40;;;;;;5041296;28;19928;-57
2021/04/25 10:37:37;;;;;;;;;;;20.30;46.50;;;;;;5048632;28;21751;-53
2021/04/25 10:40:17;;;;;;;;;;;20.30;46.50;;;;;;5050490;28;19929;-55
2021/04/25 10:43:06;;;;;;;;;;;20.30;46.50;;;;;;5030053;28;20269;-59
2021/04/25 10:45:35;;;;;;;;;;;20.40;46.80;;;;;;5039102;28;19929;-54
2021/04/25 10:48:21;;;;;;;;;;;20.30;46.60;;;;;;5050791;28;19978;-53
2021/04/25 10:51:08;;;;;;;;;;;20.40;46.60;;;;;;5035532;28;21395;-55
2021/04/25 10:53:46;;;;;;;;;;;20.40;46.70;;;;;;5048379;28;19932;-55
2021/04/25 10:56:17;;;;;;;;;;;20.50;48.50;;;;;;5027542;28;20290;-55
2021/04/25 10:58:44;;;;;;;;;;;20.50;49.70;;;;;;5046327;28;20536;-54
2021/04/25 11:01:44;;;;;;;;;;;20.60;50.80;;;;;;5048676;28;19947;-55
2021/04/25 11:04:10;;;;;;;;;;;20.60;51.70;;;;;;5031616;28;22147;-55
2021/04/25 11:06:37;;;;;;;;;;;20.60;52.30;;;;;;5047487;28;20921;-53
2021/04/25 11:09:04;;;;;;;;;;;20.70;51.90;;;;;;5044883;28;19928;-53
2021/04/25 11:11:32;;;;;;;;;;;20.70;52.90;;;;;;5048159;28;19936;-53
2021/04/25 11:13:59;;;;;;;;;;;20.80;52.80;;;;;;5033827;28;19929;-55
2021/04/25 11:16:59;;;;;;;;;;;20.80;52.90;;;;;;5046726;28;19978;-55
2021/04/25 11:19:29;;;;;;;;;;;20.80;53.20;;;;;;5036805;28;21286;-53
2021/04/25 11:22:00;;;;;;;;;;;20.90;54.80;;;;;;5046736;28;20191;-53
2021/04/25 11:24:28;;;;;;;;;;;21.00;53.90;;;;;;5047289;28;19948;-56
2021/04/25 11:26:56;;;;;;;;;;;21.00;53.90;;;;;;5042244;28;19924;-55
2021/04/25 11:29:37;;;;;;;;;;;21.00;53.70;;;;;;5048598;28;19933;-54
2021/04/25 11:32:04;;;;;;;;;;;21.10;53.90;;;;;;5046747;28;19925;-54
2021/04/25 11:37:04;;;;;;;;;;;21.10;54.20;;;;;;5045723;28;20385;-54
2021/04/25 11:39:30;;;;;;;;;;;21.10;54.10;;;;;;5044609;28;19928;-54
2021/04/25 11:41:57;;;;;;;;;;;21.20;55.30;;;;;;5040349;28;20454;-54
2021/04/25 11:44:26;;;;;;;;;;;21.20;55.90;;;;;;5048742;28;19933;-55
2021/04/25 11:46:53;;;;;;;;;;;21.20;55.40;;;;;;5047719;28;19998;-54
2021/04/25 11:49:29;;;;;;;;;;;21.30;55.30;;;;;;5047463;28;19928;-54
2021/04/25 11:52:07;;;;;;;;;;;21.30;55.20;;;;;;5048175;28;19933;-54
2021/04/25 11:54:33;;;;;;;;;;;21.30;55.30;;;;;;5047253;28;19954;-55
2021/04/25 11:57:07;;;;;;;;;;;21.30;56.60;;;;;;5066862;28;19928;-54
2021/04/25 11:59:33;;;;;;;;;;;21.40;55.80;;;;;;5060118;28;19926;-54
2021/04/25 12:02:09;;;;;;;;;;;21.40;55.40;;;;;;5064898;28;20433;-57
2021/04/25 12:04:45;;;;;;;;;;;21.40;55.80;;;;;;5064539;28;19938;-59
2021/04/25 12:07:11;;;;;;;;;;;21.40;56.60;;;;;;5064459;28;20372;-58
2021/04/25 12:09:38;;;;;;;;;;;21.40;56.30;;;;;;5053349;28;19940;-59
2021/04/25 12:12:05;;;;;;;;;;;21.40;56.20;;;;;;5063769;28;20396;-58
2021/04/25 12:14:31;;;;;;;;;;;21.50;56.50;;;;;;5049982;28;20444;-60
2021/04/25 12:17:10;;;;;;;;;;;21.40;55.10;;;;;;5060953;28;20333;-59
2021/04/25 12:19:37;;;;;;;;;;;21.40;54.90;;;;;;5027145;28;20243;-59
2021/04/25 12:22:03;;;;;;;;;;;21.40;54.40;;;;;;5063494;28;20266;-59
2021/04/25 12:24:30;;;;;;;;;;;21.40;54.20;;;;;;5063786;28;19933;-59
2021/04/25 12:26:57;;;;;;;;;;;21.40;54.70;;;;;;5064184;28;19928;-59
2021/04/25 12:29:33;;;;;;;;;;;21.30;54.70;;;;;;5063297;28;20468;-59
2021/04/25 12:31:59;;;;;;;;;;;21.30;54.80;;;;;;5061668;28;19932;-60
2021/04/25 12:34:29;;;;;;;;;;;21.30;54.90;;;;;;5066377;28;20430;-59
2021/04/25 12:36:56;;;;;;;;;;;21.30;54.50;;;;;;5058738;28;19982;-60
2021/04/25 12:39:22;;;;;;;;;;;21.20;55.10;;;;;;5066751;28;19929;-59
2021/04/25 12:41:49;;;;;;;;;;;21.20;54.80;;;;;;5062546;28;19924;-59
2021/04/25 12:44:16;;;;;;;;;;;21.30;54.40;;;;;;5053976;28;20488;-59
2021/04/25 12:46:52;;;;;;;;;;;21.30;54.90;;;;;;5059013;28;20325;-58
2021/04/25 12:49:19;;;;;;;;;;;21.20;54.90;;;;;;5054652;28;19925;-59
2021/04/25 12:51:48;;;;;;;;;;;21.20;54.90;;;;;;5054671;28;19929;-59
2021/04/25 12:54:14;;;;;;;;;;;21.20;55.40;;;;;;5056303;28;19928;-61
2021/04/25 12:56:40;;;;;;;;;;;21.20;57.60;;;;;;5057726;28;19932;-60
2021/04/25 12:59:07;;;;;;;;;;;21.30;55.90;;;;;;5065241;28;20966;-59
2021/04/25 13:01:35;;;;;;;;;;;21.40;57.10;;;;;;5060146;28;20388;-59
2021/04/25 13:04:20;;;;;;;;;;;21.40;57.30;;;;;;5065321;28;20432;-59
2021/04/25 13:06:47;;;;;;;;;;;21.40;57.40;;;;;;5035470;28;20818;-61
2021/04/25 13:09:13;;;;;;;;;;;21.50;57.10;;;;;;5059850;28;19939;-61
2021/04/25 13:11:40;;;;;;;;;;;21.60;57.30;;;;;;5063085;28;19924;-59
2021/04/25 13:14:14;;;;;;;;;;;21.60;57.30;;;;;;5059451;28;21779;-59
2021/04/25 13:16:41;;;;;;;;;;;21.60;57.30;;;;;;5062154;28;20355;-58
2021/04/25 13:19:09;;;;;;;;;;;21.60;57.00;;;;;;5061791;28;20395;-57
2021/04/25 13:21:39;;;;;;;;;;;21.70;57.10;;;;;;5063289;28;19936;-56
2021/04/25 13:24:09;;;;;;;;;;;21.70;56.70;;;;;;5059117;28;19937;-54
2021/04/25 13:26:36;;;;;;;;;;;21.70;55.70;;;;;;5061312;28;19932;-59
2021/04/25 13:29:04;;;;;;;;;;;21.60;55.90;;;;;;5061958;28;19932;-60
2021/04/25 13:31:30;;;;;;;;;;;21.60;55.50;;;;;;5064789;28;19929;-59
2021/04/25 13:33:57;;;;;;;;;;;21.60;55.30;;;;;;5059098;28;19925;-60
2021/04/25 13:36:23;;;;;;;;;;;21.60;54.00;;;;;;5057686;28;20427;-59
2021/04/25 13:38:49;;;;;;;;;;;21.60;54.90;;;;;;5059612;28;19936;-60
2021/04/25 13:41:16;;;;;;;;;;;21.60;54.50;;;;;;5063092;28;19929;-55
2021/04/25 13:43:43;;;;;;;;;;;21.70;54.10;;;;;;5062140;28;19956;-55
2021/04/25 13:46:10;;;;;;;;;;;21.80;53.80;;;;;;5064379;28;19924;-55
2021/04/25 13:48:36;;;;;;;;;;;21.90;53.20;;;;;;5061326;28;20377;-55
2021/04/25 13:51:02;;;;;;;;;;;21.90;52.40;;;;;;5058788;28;20457;-55
2021/04/25 13:53:29;;;;;;;;;;;22.00;52.40;;;;;;5060913;28;19973;-54
2021/04/25 13:55:55;;;;;;;;;;;22.00;51.80;;;;;;5062419;28;19924;-56
2021/04/25 13:58:21;;;;;;;;;;;22.00;51.90;;;;;;5063196;28;20428;-55
2021/04/25 14:00:47;;;;;;;;;;;22.10;52.40;;;;;;5062065;28;19924;-53
2021/04/25 14:03:13;;;;;;;;;;;22.10;51.80;;;;;;5062648;28;19951;-55
2021/04/25 14:05:40;;;;;;;;;;;22.10;52.30;;;;;;5065175;28;19933;-53
2021/04/25 14:08:11;;;;;;;;;;;22.10;53.90;;;;;;5061790;28;21142;-56
2021/04/25 14:10:38;;;;;;;;;;;22.10;54.00;;;;;;5065536;28;20278;-53
2021/04/25 14:13:04;;;;;;;;;;;22.10;54.30;;;;;;5063031;28;19932;-54
2021/04/25 14:15:30;;;;;;;;;;;22.10;54.90;;;;;;5055862;28;19978;-53
2021/04/25 14:17:57;;;;;;;;;;;22.10;55.00;;;;;;5064956;28;19928;-54
2021/04/25 14:20:24;;;;;;;;;;;22.20;55.00;;;;;;5062477;28;20438;-54
2021/04/25 14:22:50;;;;;;;;;;;22.20;55.20;;;;;;5063272;28;19924;-54
2021/04/25 14:25:17;;;;;;;;;;;22.20;55.60;;;;;;5066347;28;19943;-58